sensor_id;sensor_type;location;lat;lon;timestamp;pressure;altitude;pressure_sealevel;temperature;humidity
81125;BME280;71444;52.114;5.424;2023-08-06T00:00:54;100576.09;;;14.26;97.83
81125;BME280;71444;52.114;5.424;2023-08-06T00:03:33;100581.69;;;14.24;97.79
81125;BME280;71444;52.114;5.424;2023-08-06T00:06:13;100570.38;;;14.21;97.73
81125;BME280;71444;52.114;5.424;2023-08-06T00:08:53;100577.88;;;14.19;97.64
81125;BME280;71444;52.114;5.424;2023-08-06T00:11:33;100576.22;;;14.18;97.52
81125;BME280;71444;52.114;5.424;2023-08-06T00:14:13;100576.84;;;14.20;97.99
81125;BME280;71444;52.114;5.424;2023-08-06T00:16:55;100575.81;;;14.21;97.99
81125;BME280;71444;52.114;5.424;2023-08-06T00:19:35;100576.25;;;14.24;98.03
81125;BME280;71444;52.114;5.424;2023-08-06T00:22:15;100574.56;;;14.23;97.84
81125;BME280;71444;52.114;5.424;2023-08-06T00:25:03;100580.84;;;14.24;97.74
81125;BME280;71444;52.114;5.424;2023-08-06T00:27:52;100576.09;;;14.26;97.72
81125;BME280;71444;52.114;5.424;2023-08-06T00:30:35;100566.91;;;14.27;97.62
81125;BME280;71444;52.114;5.424;2023-08-06T00:33:18;100574.00;;;14.28;97.70
81125;BME280;71444;52.114;5.424;2023-08-06T00:35:57;100571.72;;;14.31;97.28
81125;BME280;71444;52.114;5.424;2023-08-06T00:38:37;100573.03;;;14.35;97.40
81125;BME280;71444;52.114;5.424;2023-08-06T00:41:16;100566.56;;;14.37;97.53
81125;BME280;71444;52.114;5.424;2023-08-06T00:43:59;100577.03;;;14.40;97.20
81125;BME280;71444;52.114;5.424;2023-08-06T00:46:41;100574.53;;;14.38;97.05
81125;BME280;71444;52.114;5.424;2023-08-06T00:49:21;100567.41;;;14.37;96.96
81125;BME280;71444;52.114;5.424;2023-08-06T00:52:01;100570.31;;;14.35;96.91
81125;BME280;71444;52.114;5.424;2023-08-06T00:54:45;100572.16;;;14.35;97.28
81125;BME280;71444;52.114;5.424;2023-08-06T00:57:25;100561.78;;;14.39;97.22
81125;BME280;71444;52.114;5.424;2023-08-06T01:00:05;100573.06;;;14.42;96.92
81125;BME280;71444;52.114;5.424;2023-08-06T01:02:46;100569.16;;;14.45;96.70
81125;BME280;71444;52.114;5.424;2023-08-06T01:05:33;100568.28;;;14.44;96.68
81125;BME280;71444;52.114;5.424;2023-08-06T01:11:40;100564.28;;;14.40;96.47
81125;BME280;71444;52.114;5.424;2023-08-06T01:18:05;100563.25;;;14.41;96.74
81125;BME280;71444;52.114;5.424;2023-08-06T01:20:45;100558.47;;;14.43;97.09
81125;BME280;71444;52.114;5.424;2023-08-06T01:23:33;100556.78;;;14.42;97.14
81125;BME280;71444;52.114;5.424;2023-08-06T01:26:30;100556.78;;;14.42;97.17
81125;BME280;71444;52.114;5.424;2023-08-06T01:29:39;100560.94;;;14.38;96.81
81125;BME280;71444;52.114;5.424;2023-08-06T01:32:25;100563.66;;;14.38;96.96
81125;BME280;71444;52.114;5.424;2023-08-06T01:35:07;100559.25;;;14.37;96.98
81125;BME280;71444;52.114;5.424;2023-08-06T01:37:52;100564.03;;;14.35;96.86
81125;BME280;71444;52.114;5.424;2023-08-06T01:40:44;100564.69;;;14.37;96.96
81125;BME280;71444;52.114;5.424;2023-08-06T01:43:34;100572.84;;;14.37;97.18
81125;BME280;71444;52.114;5.424;2023-08-06T01:46:16;100561.72;;;14.32;97.18
81125;BME280;71444;52.114;5.424;2023-08-06T01:48:56;100565.25;;;14.32;97.24
81125;BME280;71444;52.114;5.424;2023-08-06T01:51:36;100565.06;;;14.34;96.92
81125;BME280;71444;52.114;5.424;2023-08-06T01:54:17;100565.06;;;14.34;97.07
81125;BME280;71444;52.114;5.424;2023-08-06T01:56:57;100564.41;;;14.32;97.01
81125;BME280;71444;52.114;5.424;2023-08-06T01:59:42;100572.56;;;14.32;97.31
81125;BME280;71444;52.114;5.424;2023-08-06T02:02:22;100570.69;;;14.32;97.41
81125;BME280;71444;52.114;5.424;2023-08-06T02:05:01;100575.28;;;14.32;97.49
81125;BME280;71444;52.114;5.424;2023-08-06T02:07:41;100571.94;;;14.30;97.83
81125;BME280;71444;52.114;5.424;2023-08-06T02:10:21;100568.78;;;14.26;97.69
81125;BME280;71444;52.114;5.424;2023-08-06T02:13:07;100569.97;;;14.24;98.20
81125;BME280;71444;52.114;5.424;2023-08-06T02:15:47;100571.03;;;14.23;98.12
81125;BME280;71444;52.114;5.424;2023-08-06T02:18:35;100570.19;;;14.22;98.17
81125;BME280;71444;52.114;5.424;2023-08-06T02:21:23;100570.38;;;14.21;98.22
81125;BME280;71444;52.114;5.424;2023-08-06T02:24:12;100568.50;;;14.21;98.30
81125;BME280;71444;52.114;5.424;2023-08-06T02:26:53;100564.75;;;14.22;98.37
81125;BME280;71444;52.114;5.424;2023-08-06T02:29:44;100570.81;;;14.24;98.57
81125;BME280;71444;52.114;5.424;2023-08-06T02:32:27;100564.56;;;14.24;98.34
81125;BME280;71444;52.114;5.424;2023-08-06T02:35:17;100566.81;;;14.20;98.53
81125;BME280;71444;52.114;5.424;2023-08-06T02:37:57;100558.69;;;14.20;98.37
81125;BME280;71444;52.114;5.424;2023-08-06T02:40:36;100563.66;;;14.17;98.74
81125;BME280;71444;52.114;5.424;2023-08-06T02:43:21;100561.13;;;14.15;98.63
81125;BME280;71444;52.114;5.424;2023-08-06T02:46:01;100547.50;;;14.09;98.43
81125;BME280;71444;52.114;5.424;2023-08-06T02:48:41;100559.91;;;14.18;98.69
81125;BME280;71444;52.114;5.424;2023-08-06T02:51:24;100563.91;;;14.22;98.72
81125;BME280;71444;52.114;5.424;2023-08-06T02:54:03;100558.75;;;14.27;98.69
81125;BME280;71444;52.114;5.424;2023-08-06T02:56:44;100551.03;;;14.30;98.91
81125;BME280;71444;52.114;5.424;2023-08-06T02:59:24;100555.03;;;14.34;98.75
81125;BME280;71444;52.114;5.424;2023-08-06T03:02:12;100547.34;;;14.38;98.64
81125;BME280;71444;52.114;5.424;2023-08-06T03:04:51;100543.59;;;14.39;98.57
81125;BME280;71444;52.114;5.424;2023-08-06T03:07:36;100544.88;;;14.43;98.67
81125;BME280;71444;52.114;5.424;2023-08-06T03:10:16;100536.56;;;14.45;98.31
81125;BME280;71444;52.114;5.424;2023-08-06T03:13:02;100539.94;;;14.47;98.23
81125;BME280;71444;52.114;5.424;2023-08-06T03:15:41;100540.78;;;14.47;98.22
81125;BME280;71444;52.114;5.424;2023-08-06T03:18:29;100539.75;;;14.48;98.21
81125;BME280;71444;52.114;5.424;2023-08-06T03:21:12;100536.19;;;14.48;98.33
81125;BME280;71444;52.114;5.424;2023-08-06T03:23:51;100541.41;;;14.49;97.87
81125;BME280;71444;52.114;5.424;2023-08-06T03:26:38;100540.38;;;14.50;97.81
81125;BME280;71444;52.114;5.424;2023-08-06T03:29:24;100534.31;;;14.48;98.01
81125;BME280;71444;52.114;5.424;2023-08-06T03:32:04;100541.63;;;14.48;97.99
81125;BME280;71444;52.114;5.424;2023-08-06T03:34:44;100540.78;;;14.47;97.92
81125;BME280;71444;52.114;5.424;2023-08-06T03:37:23;100543.09;;;14.50;97.79
81125;BME280;71444;52.114;5.424;2023-08-06T03:40:11;100544.38;;;14.54;97.70
81125;BME280;71444;52.114;5.424;2023-08-06T03:42:51;100544.38;;;14.54;98.24
81125;BME280;71444;52.114;5.424;2023-08-06T03:45:31;100537.91;;;14.55;97.53
81125;BME280;71444;52.114;5.424;2023-08-06T03:48:10;100542.31;;;14.56;98.03
81125;BME280;71444;52.114;5.424;2023-08-06T03:50:50;100545.19;;;14.55;97.66
81125;BME280;71444;52.114;5.424;2023-08-06T03:53:30;100546.44;;;14.52;97.96
81125;BME280;71444;52.114;5.424;2023-08-06T03:56:11;100545.19;;;14.55;98.00
81125;BME280;71444;52.114;5.424;2023-08-06T03:58:51;100542.69;;;14.53;97.96
81125;BME280;71444;52.114;5.424;2023-08-06T04:01:30;100548.97;;;14.54;97.75
81125;BME280;71444;52.114;5.424;2023-08-06T04:04:10;100543.72;;;14.52;97.79
81125;BME280;71444;52.114;5.424;2023-08-06T04:06:50;100541.84;;;14.53;97.51
81125;BME280;71444;52.114;5.424;2023-08-06T04:09:29;100538.28;;;14.52;97.59
81125;BME280;71444;52.114;5.424;2023-08-06T04:12:09;100533.50;;;14.54;97.64
81125;BME280;71444;52.114;5.424;2023-08-06T04:14:50;100542.69;;;14.53;97.61
81125;BME280;71444;52.114;5.424;2023-08-06T04:17:35;100538.91;;;14.48;97.51
81125;BME280;71444;52.114;5.424;2023-08-06T04:20:14;100545.81;;;14.50;97.46
81125;BME280;71444;52.114;5.424;2023-08-06T04:23:05;100545.19;;;14.55;97.34
81125;BME280;71444;52.114;5.424;2023-08-06T04:25:56;100552.50;;;14.54;97.72
81125;BME280;71444;52.114;5.424;2023-08-06T04:28:36;100550.84;;;14.53;97.36
81125;BME280;71444;52.114;5.424;2023-08-06T04:31:16;100555.44;;;14.53;97.04
81125;BME280;71444;52.114;5.424;2023-08-06T04:33:55;100557.09;;;14.54;97.38
81125;BME280;71444;52.114;5.424;2023-08-06T04:36:36;100552.72;;;14.53;97.10
81125;BME280;71444;52.114;5.424;2023-08-06T04:39:29;100562.38;;;14.55;97.43
81125;BME280;71444;52.114;5.424;2023-08-06T04:42:18;100569.50;;;14.56;97.32
81125;BME280;71444;52.114;5.424;2023-08-06T04:45:03;100567.00;;;14.61;97.17
81125;BME280;71444;52.114;5.424;2023-08-06T04:47:43;100569.31;;;14.64;97.31
81125;BME280;71444;52.114;5.424;2023-08-06T04:50:31;100571.88;;;14.66;97.22
81125;BME280;71444;52.114;5.424;2023-08-06T04:53:20;100569.38;;;14.71;96.84
81125;BME280;71444;52.114;5.424;2023-08-06T04:56:05;100571.69;;;14.74;96.94
81125;BME280;71444;52.114;5.424;2023-08-06T04:58:44;100566.72;;;14.78;97.09
81125;BME280;71444;52.114;5.424;2023-08-06T05:01:32;100572.59;;;14.81;97.03
81125;BME280;71444;52.114;5.424;2023-08-06T05:04:11;100570.50;;;14.83;96.64
81125;BME280;71444;52.114;5.424;2023-08-06T05:06:51;100574.72;;;14.86;96.56
81125;BME280;71444;52.114;5.424;2023-08-06T05:09:39;100576.59;;;14.85;96.71
81125;BME280;71444;52.114;5.424;2023-08-06T05:12:27;100579.69;;;14.82;96.24
81125;BME280;71444;52.114;5.424;2023-08-06T05:15:07;100581.78;;;14.80;96.48
81125;BME280;71444;52.114;5.424;2023-08-06T05:17:47;100588.25;;;14.79;96.74
81125;BME280;71444;52.114;5.424;2023-08-06T05:20:27;100588.47;;;14.78;96.73
81125;BME280;71444;52.114;5.424;2023-08-06T05:23:16;100601.84;;;14.79;96.25
81125;BME280;71444;52.114;5.424;2023-08-06T05:25:58;100599.13;;;14.79;96.52
81125;BME280;71444;52.114;5.424;2023-08-06T05:28:38;100597.25;;;14.80;96.39
81125;BME280;71444;52.114;5.424;2023-08-06T05:31:19;100599.13;;;14.79;96.49
81125;BME280;71444;52.114;5.424;2023-08-06T05:33:59;100616.09;;;14.81;96.30
81125;BME280;71444;52.114;5.424;2023-08-06T05:36:48;100607.94;;;14.81;96.35
81125;BME280;71444;52.114;5.424;2023-08-06T05:39:30;100607.09;;;14.81;96.20
81125;BME280;71444;52.114;5.424;2023-08-06T05:42:21;100612.13;;;14.84;96.34
81125;BME280;71444;52.114;5.424;2023-08-06T05:45:01;100617.97;;;14.81;96.47
81125;BME280;71444;52.114;5.424;2023-08-06T05:47:49;100620.47;;;14.82;96.53
81125;BME280;71444;52.114;5.424;2023-08-06T05:50:31;100629.47;;;14.83;96.38
81125;BME280;71444;52.114;5.424;2023-08-06T05:53:11;100629.47;;;14.83;96.38
81125;BME280;71444;52.114;5.424;2023-08-06T05:55:50;100629.88;;;14.80;96.55
81125;BME280;71444;52.114;5.424;2023-08-06T05:58:30;100634.47;;;14.79;96.38
81125;BME280;71444;52.114;5.424;2023-08-06T06:01:10;100637.41;;;14.78;96.31
81125;BME280;71444;52.114;5.424;2023-08-06T06:03:49;100637.41;;;14.78;96.51
81125;BME280;71444;52.114;5.424;2023-08-06T06:06:29;100635.31;;;14.80;96.51
81125;BME280;71444;52.114;5.424;2023-08-06T06:09:09;100644.94;;;14.82;96.43
81125;BME280;71444;52.114;5.424;2023-08-06T06:11:48;100641.19;;;14.83;96.67
81125;BME280;71444;52.114;5.424;2023-08-06T06:14:28;100648.13;;;14.86;96.41
81125;BME280;71444;52.114;5.424;2023-08-06T06:17:08;100647.09;;;14.87;96.45
81125;BME280;71444;52.114;5.424;2023-08-06T06:19:53;100650.66;;;14.87;96.51
81125;BME280;71444;52.114;5.424;2023-08-06T06:22:32;100660.69;;;14.87;96.73
81125;BME280;71444;52.114;5.424;2023-08-06T06:25:12;100659.66;;;14.88;96.46
81125;BME280;71444;52.114;5.424;2023-08-06T06:27:52;100659.66;;;14.88;96.56
81125;BME280;71444;52.114;5.424;2023-08-06T06:30:37;100662.16;;;14.89;96.73
81125;BME280;71444;52.114;5.424;2023-08-06T06:33:16;100661.56;;;14.94;96.77
81125;BME280;71444;52.114;5.424;2023-08-06T06:35:56;100673.97;;;15.03;96.84
81125;BME280;71444;52.114;5.424;2023-08-06T06:38:36;100668.16;;;15.06;97.28
81125;BME280;71444;52.114;5.424;2023-08-06T06:41:16;100673.19;;;15.09;96.91
81125;BME280;71444;52.114;5.424;2023-08-06T06:43:55;100683.47;;;15.14;96.77
81125;BME280;71444;52.114;5.424;2023-08-06T06:46:35;100678.44;;;15.11;96.96
81125;BME280;71444;52.114;5.424;2023-08-06T06:49:15;100686.78;;;15.09;97.07
81125;BME280;71444;52.114;5.424;2023-08-06T06:51:54;100674.63;;;15.05;97.13
81125;BME280;71444;52.114;5.424;2023-08-06T06:54:34;100684.84;;;15.03;97.70
81125;BME280;71444;52.114;5.424;2023-08-06T06:57:14;100685.44;;;14.99;97.86
81125;BME280;71444;52.114;5.424;2023-08-06T06:59:54;100683.31;;;14.94;98.08
81125;BME280;71444;52.114;5.424;2023-08-06T07:02:33;100681.00;;;14.91;98.35
81125;BME280;71444;52.114;5.424;2023-08-06T07:05:13;100684.56;;;14.91;98.76
81125;BME280;71444;52.114;5.424;2023-08-06T07:07:52;100679.13;;;14.91;99.10
81125;BME280;71444;52.114;5.424;2023-08-06T07:10:32;100694.00;;;14.96;98.86
81125;BME280;71444;52.114;5.424;2023-08-06T07:13:12;100676.88;;;14.95;99.10
81125;BME280;71444;52.114;5.424;2023-08-06T07:15:51;100688.19;;;14.99;99.39
81125;BME280;71444;52.114;5.424;2023-08-06T07:18:31;100689.84;;;15.00;99.33
81125;BME280;71444;52.114;5.424;2023-08-06T07:21:11;100689.84;;;15.00;99.70
81125;BME280;71444;52.114;5.424;2023-08-06T07:23:50;100694.44;;;14.99;99.40
81125;BME280;71444;52.114;5.424;2023-08-06T07:26:30;100693.81;;;14.97;99.56
81125;BME280;71444;52.114;5.424;2023-08-06T07:29:10;100688.56;;;14.96;99.63
81125;BME280;71444;52.114;5.424;2023-08-06T07:31:49;100701.97;;;14.97;99.62
81125;BME280;71444;52.114;5.424;2023-08-06T07:34:29;100703.66;;;14.98;99.73
81125;BME280;71444;52.114;5.424;2023-08-06T07:37:10;100705.97;;;15.01;99.61
81125;BME280;71444;52.114;5.424;2023-08-06T07:40:01;100699.13;;;15.05;100.00
81125;BME280;71444;52.114;5.424;2023-08-06T07:42:49;100703.53;;;15.13;100.00
81125;BME280;71444;52.114;5.424;2023-08-06T07:45:40;100700.47;;;15.16;100.00
81125;BME280;71444;52.114;5.424;2023-08-06T07:48:28;100712.53;;;15.13;100.00
81125;BME280;71444;52.114;5.424;2023-08-06T07:51:17;100709.81;;;15.13;100.00
81125;BME280;71444;52.114;5.424;2023-08-06T07:53:56;100710.88;;;15.12;100.00
81125;BME280;71444;52.114;5.424;2023-08-06T07:56:37;100706.28;;;15.13;99.84
81125;BME280;71444;52.114;5.424;2023-08-06T07:59:25;100712.53;;;15.13;100.00
81125;BME280;71444;52.114;5.424;2023-08-06T08:02:09;100706.72;;;15.16;100.00
81125;BME280;71444;52.114;5.424;2023-08-06T08:04:58;100707.78;;;15.15;100.00
81125;BME280;71444;52.114;5.424;2023-08-06T08:07:45;100714.63;;;15.11;100.00
81125;BME280;71444;52.114;5.424;2023-08-06T08:10:27;100712.03;;;15.03;100.00
81125;BME280;71444;52.114;5.424;2023-08-06T08:13:06;100720.69;;;14.85;99.76
81125;BME280;71444;52.114;5.424;2023-08-06T08:15:59;100716.34;;;14.70;99.87
81125;BME280;71444;52.114;5.424;2023-08-06T08:18:45;100722.09;;;14.60;99.98
81125;BME280;71444;52.114;5.424;2023-08-06T08:21:25;100718.25;;;14.54;99.76
81125;BME280;71444;52.114;5.424;2023-08-06T08:24:08;100718.41;;;14.46;99.69
81125;BME280;71444;52.114;5.424;2023-08-06T08:26:48;100726.25;;;14.41;99.74
81125;BME280;71444;52.114;5.424;2023-08-06T08:29:36;100730.41;;;14.37;99.60
81125;BME280;71444;52.114;5.424;2023-08-06T08:32:24;100729.56;;;14.37;99.96
81125;BME280;71444;52.114;5.424;2023-08-06T08:35:12;100734.31;;;14.34;99.73
81125;BME280;71444;52.114;5.424;2023-08-06T08:37:54;100732.00;;;14.31;99.74
81125;BME280;71444;52.114;5.424;2023-08-06T08:40:47;100737.44;;;14.31;99.75
81125;BME280;71444;52.114;5.424;2023-08-06T08:43:32;100736.88;;;14.36;100.00
81125;BME280;71444;52.114;5.424;2023-08-06T08:46:13;100737.03;;;14.34;100.00
81125;BME280;71444;52.114;5.424;2023-08-06T08:49:02;100740.59;;;14.35;100.00
81125;BME280;71444;52.114;5.424;2023-08-06T08:51:46;100739.94;;;14.33;99.78
81125;BME280;71444;52.114;5.424;2023-08-06T08:54:27;100741.47;;;14.35;99.74
81125;BME280;71444;52.114;5.424;2023-08-06T08:57:20;100747.06;;;14.34;99.58
81125;BME280;71444;52.114;5.424;2023-08-06T09:00:06;100741.63;;;14.34;100.00
81125;BME280;71444;52.114;5.424;2023-08-06T09:02:58;100746.41;;;14.32;99.77
81125;BME280;71444;52.114;5.424;2023-08-06T09:05:46;100757.56;;;14.37;99.76
81125;BME280;71444;52.114;5.424;2023-08-06T09:08:49;100760.53;;;14.42;99.54
81125;BME280;71444;52.114;5.424;2023-08-06T09:11:40;100757.47;;;14.45;99.42
81125;BME280;71444;52.114;5.424;2023-08-06T09:14:24;100768.81;;;14.49;99.64
81125;BME280;71444;52.114;5.424;2023-08-06T09:17:05;100764.59;;;14.46;99.66
81125;BME280;71444;52.114;5.424;2023-08-06T09:19:50;100771.03;;;14.45;99.86
81125;BME280;71444;52.114;5.424;2023-08-06T09:22:34;100764.47;;;14.40;99.54
81125;BME280;71444;52.114;5.424;2023-08-06T09:25:24;100780.97;;;14.38;99.33
81125;BME280;71444;52.114;5.424;2023-08-06T09:28:08;100776.59;;;14.37;99.74
81125;BME280;71444;52.114;5.424;2023-08-06T09:30:52;100782.00;;;14.37;99.79
81125;BME280;71444;52.114;5.424;2023-08-06T09:33:42;100783.88;;;14.37;99.64
81125;BME280;71444;52.114;5.424;2023-08-06T09:36:31;100792.69;;;14.39;99.81
81125;BME280;71444;52.114;5.424;2023-08-06T09:39:21;100791.06;;;14.44;100.00
81125;BME280;71444;52.114;5.424;2023-08-06T09:42:05;100795.50;;;14.45;100.00
81125;BME280;71444;52.114;5.424;2023-08-06T09:45:05;100797.38;;;14.45;100.00
81125;BME280;71444;52.114;5.424;2023-08-06T09:47:45;100811.13;;;14.43;100.00
81125;BME280;71444;52.114;5.424;2023-08-06T09:50:29;100809.44;;;14.42;99.93
81125;BME280;71444;52.114;5.424;2023-08-06T09:53:19;100816.38;;;14.45;100.00
81125;BME280;71444;52.114;5.424;2023-08-06T09:55:59;100812.47;;;14.47;100.00
81125;BME280;71444;52.114;5.424;2023-08-06T09:58:39;100817.53;;;14.50;100.00
81125;BME280;71444;52.114;5.424;2023-08-06T10:01:28;100820.69;;;14.54;100.00
81125;BME280;71444;52.114;5.424;2023-08-06T10:04:16;100827.91;;;14.61;100.00
81125;BME280;71444;52.114;5.424;2023-08-06T10:07:00;100817.75;;;14.70;100.00
81125;BME280;71444;52.114;5.424;2023-08-06T10:09:49;100821.59;;;14.76;100.00
81125;BME280;71444;52.114;5.424;2023-08-06T10:12:43;100827.03;;;14.76;100.00
81125;BME280;71444;52.114;5.424;2023-08-06T10:15:39;100833.66;;;14.73;100.00
81125;BME280;71444;52.114;5.424;2023-08-06T10:18:32;100837.38;;;14.66;99.79
81125;BME280;71444;52.114;5.424;2023-08-06T10:21:26;100837.19;;;14.67;99.71
81125;BME280;71444;52.114;5.424;2023-08-06T10:24:08;100842.97;;;14.64;99.45
81125;BME280;71444;52.114;5.424;2023-08-06T10:26:50;100849.94;;;14.67;99.52
81125;BME280;71444;52.114;5.424;2023-08-06T10:29:36;100837.22;;;14.74;99.98
81125;BME280;71444;52.114;5.424;2023-08-06T10:32:47;100840.22;;;14.79;99.73
81125;BME280;71444;52.114;5.424;2023-08-06T10:41:08;100840.97;;;14.87;99.55
81125;BME280;71444;52.114;5.424;2023-08-06T10:44:06;100842.91;;;14.93;99.45
81125;BME280;71444;52.114;5.424;2023-08-06T10:46:49;100844.00;;;14.99;99.69
81125;BME280;71444;52.114;5.424;2023-08-06T10:49:31;100841.69;;;14.96;99.60
81125;BME280;71444;52.114;5.424;2023-08-06T10:52:11;100843.38;;;14.97;99.54
81125;BME280;71444;52.114;5.424;2023-08-06T10:54:59;100843.63;;;15.02;99.66
81125;BME280;71444;52.114;5.424;2023-08-06T10:57:42;100845.31;;;15.03;99.74
81125;BME280;71444;52.114;5.424;2023-08-06T11:00:24;100842.25;;;15.13;99.90
81125;BME280;71444;52.114;5.424;2023-08-06T11:03:04;100848.63;;;15.20;99.62
81125;BME280;71444;52.114;5.424;2023-08-06T11:05:50;100860.41;;;15.27;99.71
81125;BME280;71444;52.114;5.424;2023-08-06T11:08:34;100861.47;;;15.26;98.99
81125;BME280;71444;52.114;5.424;2023-08-06T11:11:16;100867.16;;;15.31;99.33
81125;BME280;71444;52.114;5.424;2023-08-06T11:14:02;100861.34;;;15.34;99.10
81125;BME280;71444;52.114;5.424;2023-08-06T11:16:48;100867.16;;;15.31;98.54
81125;BME280;71444;52.114;5.424;2023-08-06T11:19:28;100867.41;;;15.36;99.12
81125;BME280;71444;52.114;5.424;2023-08-06T11:22:08;100868.06;;;15.38;98.60
81125;BME280;71444;52.114;5.424;2023-08-06T11:24:49;100868.06;;;15.38;97.57
81125;BME280;71444;52.114;5.424;2023-08-06T11:27:29;100876.22;;;15.38;97.30
81125;BME280;71444;52.114;5.424;2023-08-06T11:30:11;100867.94;;;15.25;97.52
81125;BME280;71444;52.114;5.424;2023-08-06T11:32:50;100872.66;;;15.16;98.60
81125;BME280;71444;52.114;5.424;2023-08-06T11:35:30;100885.34;;;15.09;99.21
81125;BME280;71444;52.114;5.424;2023-08-06T11:38:15;100886.81;;;15.12;99.44
81125;BME280;71444;52.114;5.424;2023-08-06T11:40:54;100885.44;;;15.01;99.07
81125;BME280;71444;52.114;5.424;2023-08-06T11:43:46;100891.97;;;14.85;99.07
81125;BME280;71444;52.114;5.424;2023-08-06T11:46:26;100894.69;;;14.71;98.88
81125;BME280;71444;52.114;5.424;2023-08-06T11:49:05;100893.69;;;14.57;98.92
81125;BME280;71444;52.114;5.424;2023-08-06T11:51:45;100887.53;;;14.48;98.86
81125;BME280;71444;52.114;5.424;2023-08-06T11:54:31;100887.19;;;14.43;99.13
81125;BME280;71444;52.114;5.424;2023-08-06T11:57:15;100889.44;;;14.40;99.52
81125;BME280;71444;52.114;5.424;2023-08-06T11:59:54;100888.31;;;14.34;99.24
81125;BME280;71444;52.114;5.424;2023-08-06T12:02:34;100898.25;;;14.27;99.35
81125;BME280;71444;52.114;5.424;2023-08-06T12:05:20;100895.06;;;14.23;99.23
81125;BME280;71444;52.114;5.424;2023-08-06T12:08:02;100895.91;;;14.24;100.00
81125;BME280;71444;52.114;5.424;2023-08-06T12:10:42;100892.00;;;14.26;99.94
81125;BME280;71444;52.114;5.424;2023-08-06T12:13:22;100898.53;;;14.32;99.95
81125;BME280;71444;52.114;5.424;2023-08-06T12:16:02;100898.63;;;14.39;100.00
81125;BME280;71444;52.114;5.424;2023-08-06T12:18:52;100899.41;;;14.47;100.00
81125;BME280;71444;52.114;5.424;2023-08-06T12:21:32;100901.56;;;14.52;100.00
81125;BME280;71444;52.114;5.424;2023-08-06T12:24:11;100905.78;;;14.54;100.00
81125;BME280;71444;52.114;5.424;2023-08-06T12:26:51;100912.03;;;14.55;100.00
81125;BME280;71444;52.114;5.424;2023-08-06T12:29:31;100909.31;;;14.55;100.00
81125;BME280;71444;52.114;5.424;2023-08-06T12:32:11;100921.53;;;14.59;100.00
81125;BME280;71444;52.114;5.424;2023-08-06T12:34:55;100925.28;;;14.58;100.00
81125;BME280;71444;52.114;5.424;2023-08-06T12:37:35;100925.72;;;14.61;100.00
81125;BME280;71444;52.114;5.424;2023-08-06T12:40:16;100927.06;;;14.66;100.00
81125;BME280;71444;52.114;5.424;2023-08-06T12:42:56;100926.47;;;14.70;100.00
81125;BME280;71444;52.114;5.424;2023-08-06T12:45:39;100938.50;;;14.76;100.00
81125;BME280;71444;52.114;5.424;2023-08-06T12:48:19;100939.41;;;14.83;100.00
81125;BME280;71444;52.114;5.424;2023-08-06T12:50:58;100938.56;;;14.82;100.00
81125;BME280;71444;52.114;5.424;2023-08-06T12:53:36;100938.56;;;14.82;100.00
81125;BME280;71444;52.114;5.424;2023-08-06T12:56:15;100949.06;;;14.85;100.00
81125;BME280;71444;52.114;5.424;2023-08-06T12:59:04;100949.72;;;14.87;100.00
81125;BME280;71444;52.114;5.424;2023-08-06T13:01:44;100949.34;;;14.90;100.00
81125;BME280;71444;52.114;5.424;2023-08-06T13:04:24;100954.13;;;14.88;100.00
81125;BME280;71444;52.114;5.424;2023-08-06T13:07:04;100954.56;;;14.92;100.00
81125;BME280;71444;52.114;5.424;2023-08-06T13:09:44;100961.06;;;14.91;100.00
81125;BME280;71444;52.114;5.424;2023-08-06T13:12:24;100966.78;;;14.96;100.00
81125;BME280;71444;52.114;5.424;2023-08-06T13:15:04;100974.75;;;14.98;100.00
81125;BME280;71444;52.114;5.424;2023-08-06T13:17:44;100966.19;;;15.01;100.00
81125;BME280;71444;52.114;5.424;2023-08-06T13:20:24;100972.09;;;15.04;100.00
81125;BME280;71444;52.114;5.424;2023-08-06T13:23:05;100972.09;;;15.04;100.00
81125;BME280;71444;52.114;5.424;2023-08-06T13:25:45;100971.72;;;15.07;100.00
81125;BME280;71444;52.114;5.424;2023-08-06T13:28:25;100975.94;;;15.10;100.00
81125;BME280;71444;52.114;5.424;2023-08-06T13:31:04;100976.03;;;15.16;100.00
81125;BME280;71444;52.114;5.424;2023-08-06T13:33:44;100969.81;;;15.23;100.00
81125;BME280;71444;52.114;5.424;2023-08-06T13:36:26;100983.88;;;15.26;100.00
81125;BME280;71444;52.114;5.424;2023-08-06T13:39:06;100977.22;;;15.29;100.00
81125;BME280;71444;52.114;5.424;2023-08-06T13:41:46;100985.63;;;15.34;100.00
81125;BME280;71444;52.114;5.424;2023-08-06T13:44:26;100981.22;;;15.33;100.00
81125;BME280;71444;52.114;5.424;2023-08-06T13:47:07;100989.88;;;15.36;100.00
81125;BME280;71444;52.114;5.424;2023-08-06T13:49:46;100988.03;;;15.43;100.00
81125;BME280;71444;52.114;5.424;2023-08-06T13:52:27;101002.13;;;15.47;100.00
81125;BME280;71444;52.114;5.424;2023-08-06T13:55:07;100995.91;;;15.53;100.00
81125;BME280;71444;52.114;5.424;2023-08-06T13:57:47;100992.16;;;15.54;100.00
81125;BME280;71444;52.114;5.424;2023-08-06T14:00:27;101003.41;;;15.51;100.00
81125;BME280;71444;52.114;5.424;2023-08-06T14:03:07;101002.38;;;15.52;100.00
81125;BME280;71444;52.114;5.424;2023-08-06T14:05:47;101002.84;;;15.56;100.00
81125;BME280;71444;52.114;5.424;2023-08-06T14:08:27;101003.78;;;15.63;100.00
81125;BME280;71444;52.114;5.424;2023-08-06T14:11:06;101002.47;;;15.73;100.00
81125;BME280;71444;52.114;5.424;2023-08-06T14:13:46;101004.78;;;15.76;100.00
81125;BME280;71444;52.114;5.424;2023-08-06T14:16:26;101008.03;;;15.87;100.00
81125;BME280;71444;52.114;5.424;2023-08-06T14:19:06;101005.19;;;15.95;100.00
81125;BME280;71444;52.114;5.424;2023-08-06T14:21:46;101013.59;;;16.00;100.00